Terminal Aerodrome Forecast
Issued by NWS

Home | Current Version | Previous Version | Text Only | Print | Product List | Glossary On
Versions: 1 2 3 4 5 6 7 8 9 10 11 12 13 14 15 16 17 18 19 20 21 22 23 24
000
FTAK31 PAFG 301740
TAFAMC
TAF
PAMC 301740Z 3018/3118 36005KT P6SM FEW070
     FM302100 03006KT P6SM VCTS BKN060CB
     FM310700 VRB03KT P6SM VCSH BKN050=

USA.gov is the U.S. government's official web portal to all federal, state and local government web resources and services.